KRYM

Ray S Miller AAF Airport

Camp Ripley, Minnesota, USA
METAR KRYM 162356Z AUTO 28007KT 10SM CLR 00/M08 A3018 RMK AO2 SLP238 T10041080 10067 21004 52019 $
Observed Flight Rules
Dec-16 @ 23:56 UTC (35 minutes ago) Visual Flight Rules
Wind Visibility Clouds
280° at 7 knots 10 miles
  • Clear skies
Temperatures Readings
Current -0°C / 32°F
Dewpoint -8°C / 18°F
Humidity 55%
Altimeter 30.18" Hg
Pressure 1023.8 hPa
Elevation 351
METAR KRYM 162356Z AUTO 28007KT 10SM CLR 00/M08 A3018 RMK AO2 SLP238 T10041080 10067 21004 52019 $
Observed Flight Rules
Dec-16 @ 23:56 UTC
(35 minutes ago)
VFR
Wind Visibility
280° at 7 knots 10 miles
Clouds
  • Clear skies
Temperature Dewpoint
-0°C / 32°F -8°C / 18°F
Humidity Altimeter Pressure
55% 30.18" Hg 1023.8 hPa